Map

Track Data

SID SEASON NUMBER BASIN SUBBASIN NAME ISO_TIME NATURE LAT LON WMO_WIND WMO_PRES WMO_AGENCY TRACK_TYPE DIST2LAND LANDFALL IFLAG USA_AGENCY USA_ATCF_ID USA_LAT USA_LON USA_RECORD USA_STATUS USA_WIND USA_PRES USA_SSHS USA_R34_NE USA_R34_SE USA_R34_SW USA_R34_NW USA_R50_NE USA_R50_SE USA_R50_SW USA_R50_NW USA_R64_NE USA_R64_SE USA_R64_SW USA_R64_NW USA_POCI USA_ROCI USA_RMW USA_EYE TOKYO_LAT TOKYO_LON TOKYO_GRADE TOKYO_WIND TOKYO_PRES TOKYO_R50_DIR TOKYO_R50_LONG TOKYO_R50_SHORT TOKYO_R30_DIR TOKYO_R30_LONG TOKYO_R30_SHORT TOKYO_LAND CMA_LAT CMA_LON CMA_CAT CMA_WIND CMA_PRES HKO_LAT HKO_LON HKO_CAT HKO_WIND HKO_PRES NEWDELHI_LAT NEWDELHI_LON NEWDELHI_GRADE NEWDELHI_WIND NEWDELHI_PRES NEWDELHI_CI NEWDELHI_DP NEWDELHI_POCI REUNION_LAT REUNION_LON REUNION_TYPE REUNION_WIND REUNION_PRES REUNION_TNUM REUNION_CI REUNION_RMW REUNION_R34_NE REUNION_R34_SE REUNION_R34_SW REUNION_R34_NW REUNION_R50_NE REUNION_R50_SE REUNION_R50_SW REUNION_R50_NW REUNION_R64_NE REUNION_R64_SE REUNION_R64_SW REUNION_R64_NW BOM_LAT BOM_LON BOM_TYPE BOM_WIND BOM_PRES BOM_TNUM BOM_CI BOM_RMW BOM_R34_NE BOM_R34_SE BOM_R34_SW BOM_R34_NW BOM_R50_NE BOM_R50_SE BOM_R50_SW BOM_R50_NW BOM_R64_NE BOM_R64_SE BOM_R64_SW BOM_R64_NW BOM_ROCI BOM_POCI BOM_EYE BOM_POS_METHOD BOM_PRES_METHOD NADI_LAT NADI_LON NADI_CAT NADI_WIND NADI_PRES WELLINGTON_LAT WELLINGTON_LON WELLINGTON_WIND WELLINGTON_PRES DS824_LAT DS824_LON DS824_STAGE DS824_WIND DS824_PRES TD9636_LAT TD9636_LON TD9636_STAGE TD9636_WIND TD9636_PRES TD9635_LAT TD9635_LON TD9635_WIND TD9635_PRES TD9635_ROCI NEUMANN_LAT NEUMANN_LON NEUMANN_CLASS NEUMANN_WIND NEUMANN_PRES MLC_LAT MLC_LON MLC_CLASS MLC_WIND MLC_PRES USA_GUST BOM_GUST BOM_GUST_PER REUNION_GUST REUNION_GUST_PER USA_SEAHGT USA_SEARAD_NE USA_SEARAD_SE USA_SEARAD_SW USA_SEARAD_NW STORM_SPEED STORM_DIR
1886259N16117 1886 30 WP MM NOT_NAMED 1886-09-15 16:00:00 NR 16.4000 117.100 main 281 275 __________O___ -1 16.4000 117.100 7 5 18
1886259N16117 1886 30 WP MM NOT_NAMED 1886-09-15 18:00:00 NR 16.5639 117.157 main 275 275 __________P___ -1 16.5639 117.157 7 5 19
1886259N16117 1886 30 WP MM NOT_NAMED 1886-09-15 21:00:00 NR 16.8170 117.246 main 281 271 __________P___ -1 16.8170 117.246 7 6 19
1886259N16117 1886 30 WP MM NOT_NAMED 1886-09-16 00:00:00 NR 17.0889 117.345 main 280 270 __________P___ -1 17.0889 117.345 7 6 19
1886259N16117 1886 30 WP MM NOT_NAMED 1886-09-16 03:00:00 NR 17.3908 117.458 main 274 274 __________P___ -1 17.3908 117.458 7 7 20
1886259N16117 1886 30 WP MM NOT_NAMED 1886-09-16 04:00:00 NR 17.5000 117.500 main 279 275 __________O___ -1 17.5000 117.500 7 7 20
1886259N16117 1886 30 WP MM NOT_NAMED 1886-09-16 06:00:00 NR 17.7324 117.591 main 281 277 __________P___ -1 17.7324 117.591 7 8 21
1886259N16117 1886 30 WP MM NOT_NAMED 1886-09-16 09:00:00 NR 18.1064 117.740 main 280 269 __________P___ -1 18.1064 117.740 7 8 21
1886259N16117 1886 30 WP MM NOT_NAMED 1886-09-16 12:00:00 NR 18.4941 117.897 main 273 267 __________P___ -1 18.4941 117.897 7 8 21
1886259N16117 1886 30 WP MM NOT_NAMED 1886-09-16 15:00:00 NR 18.8768 118.051 main 268 268 __________P___ -1 18.8768 118.051 7 8 21
1886259N16117 1886 30 WP MM NOT_NAMED 1886-09-16 16:00:00 NR 19.0000 118.100 main 271 264 __________O___ -1 19.0000 118.100 7 8 21
1886259N16117 1886 30 WP MM NOT_NAMED 1886-09-16 18:00:00 NR 19.2412 118.194 main 268 266 __________P___ -1 19.2412 118.194 7 8 20
1886259N16117 1886 30 WP MM NOT_NAMED 1886-09-16 21:00:00 NR 19.5906 118.330 main 276 267 __________P___ -1 19.5906 118.330 7 7 20
1886259N16117 1886 30 WP MM NOT_NAMED 1886-09-17 00:00:00 NR 19.9170 118.455 main 277 277 __________P___ -1 19.9170 118.455 7 7 20
1886259N16117 1886 30 WP MM NOT_NAMED 1886-09-17 03:00:00 NR 20.2109 118.566 main 289 281 __________P___ -1 20.2109 118.566 7 6 20
1886259N16117 1886 30 WP MM NOT_NAMED 1886-09-17 04:00:00 NR 20.3000 118.600 main 281 259 __________O___ -1 20.3000 118.600 7 5 21
1886259N16117 1886 30 WP MM NOT_NAMED 1886-09-17 06:00:00 NR 20.4592 118.667 main 259 238 __________P___ -1 20.4592 118.667 7 5 21
1886259N16117 1886 30 WP MM NOT_NAMED 1886-09-17 09:00:00 NR 20.6665 118.754 main 238 226 __________P___ -1 20.6665 118.754 7 4 21
1886259N16117 1886 30 WP MM NOT_NAMED 1886-09-17 12:00:00 NR 20.8526 118.827 main 226 211 __________P___ -1 20.8526 118.827 7 4 18
1886259N16117 1886 30 WP MM NOT_NAMED 1886-09-17 15:00:00 NR 21.0361 118.884 main 211 206 __________P___ -1 21.0361 118.884 7 4 15
1886259N16117 1886 30 WP MM NOT_NAMED 1886-09-17 16:00:00 NR 21.1000 118.900 main 206 201 __________O___ -1 21.1000 118.900 7 4 17
1886259N16117 1886 30 WP MM NOT_NAMED 1886-09-17 18:00:00 NR 21.2364 118.944 main 201 181 __________P___ -1 21.2364 118.944 7 4 14
1886259N16117 1886 30 WP MM NOT_NAMED 1886-09-17 21:00:00 NR 21.4471 118.997 main 181 161 __________P___ -1 21.4471 118.997 7 4 11
1886259N16117 1886 30 WP MM NOT_NAMED 1886-09-18 00:00:00 NR 21.6708 119.025 main 161 149 __________P___ -1 21.6708 119.025 7 5 0
1886259N16117 1886 30 WP MM NOT_NAMED 1886-09-18 03:00:00 NR 21.9137 119.014 main 149 144 __________P___ -1 21.9137 119.014 7 5 0
1886259N16117 1886 30 WP MM NOT_NAMED 1886-09-18 04:00:00 NR 22.0000 119.000 main 144 137 __________O___ -1 22.0000 119.000 3 6 352
1886259N16117 1886 30 WP MM NOT_NAMED 1886-09-18 06:00:00 NR 22.1933 118.969 main 137 135 __________P___ -1 22.1933 118.969 3 6 348
1886259N16117 1886 30 WP MM NOT_NAMED 1886-09-18 09:00:00 NR 22.5023 118.886 main 137 135 __________P___ -1 22.5023 118.886 3 7 342
1886259N16117 1886 30 WP MM NOT_NAMED 1886-09-18 12:00:00 NR 22.8150 118.755 main 137 121 __________P___ -1 22.8150 118.755 3 7 335
1886259N16117 1886 30 WP MM NOT_NAMED 1886-09-18 15:00:00 NR 23.1096 118.572 main 121 105 __________P___ -1 23.1096 118.572 3 7 329
1886259N16117 1886 30 WP MM NOT_NAMED 1886-09-18 16:00:00 NR 23.2000 118.500 main 105 75 __________O___ -1 23.2000 118.500 4 7 320
1886259N16117 1886 30 WP MM NOT_NAMED 1886-09-18 18:00:00 NR 23.3659 118.338 main 75 45 __________P___ -1 23.3659 118.338 4 7 313
1886259N16117 1886 30 WP MM NOT_NAMED 1886-09-18 21:00:00 NR 23.5828 118.057 main 45 10 __________P___ -1 23.5828 118.057 4 7 307
1886259N16117 1886 30 WP MM NOT_NAMED 1886-09-19 00:00:00 NR 23.7716 117.744 main 10 0 __________P___ -1 23.7716 117.744 4 7 302
1886259N16117 1886 30 WP MM NOT_NAMED 1886-09-19 03:00:00 NR 23.9441 117.412 main 0 0 __________P___ -1 23.9441 117.412 4 7 299
1886259N16117 1886 30 WP MM NOT_NAMED 1886-09-19 04:00:00 NR 24.0000 117.300 main 0 __________O___ -1 24.0000 117.300 4 7 298

Digital Typhoon Data and Search

About IBTrACS Database

This database is a web-friendly format of International Best Track Archive for Climate Stewardship (IBTrACS), a global best track data archive curated by NOAA dating back to 1842.

Updated: 2021-11-26